YSSY/SYD METAR and TAF weather

Enter ICAO airport designator
Station Type Date Time Source
YSSY METAR 2022/01/23 11:00 UTC NOAA

YSSY 231100Z 08006KT 9999 VCSH FEW012 SCT025 BKN045 20/18 Q1015


Station Type Date Time Source
YSSY Decoded METAR 2022/01/23 11:00 UTC NOAA

Sydney Airport, Australia (YSSY) 33-57S 151-11E 3M
Jan 23, 2022 - 06:00 AM EST / 2022.01.23 1100 UTC
Wind: from the E (080 degrees) at 7 MPH (6 KT):0
Visibility: greater than 7 mile(s):0
Sky conditions: mostly cloudy
Weather: showers in the vicinity
Temperature: 68 F (20 C)
Dew Point: 64 F (18 C)
Relative Humidity: 88%
Pressure (altimeter): 29.97 in. Hg (1015 hPa)
ob: YSSY 231100Z 08006KT 9999 VCSH FEW012 SCT025 BKN045 20/18 Q1015
cycle: 11

Station Type Date Time Source
YSSY TAF 2022/01/23 12:31 UTC NOAA

TAF YSSY 231129Z 2312/2418 19008KT 9999 -SHRA SCT025
FM240000 14012KT 9999 NSW SCT035
FM240600 10012KT 9999 SCT040
FM241200 19008KT 9999 -SHRA SCT025 INTER 2312/2400 5000 SHRA SCT015

Example: see airport list